Time;durP1;ratioP1;P1;durP2;ratioP2;P2;SDS_P1;SDS_P2;PMS_P1;PMS_P2;Temp;Humidity;BMP_temperature;BMP_pressure;BME280_temperature;BME280_humidity;BME280_pressure;Samples;Min_cycle;Max_cycle;Signal;HPM_P1;HPM_P2
2023/02/07 00:11:39;;;;;;;11.67;6.50;;;;;;;-2.13;100.00;101286.22;31218136;28;20049;-78
2023/02/07 00:26:42;;;;;;;11.57;6.93;;;;;;;-2.06;100.00;101259.16;31172044;28;20494;-78
2023/02/07 00:41:44;;;;;;;7.93;5.47;;;;;;;-2.09;100.00;101268.53;31244931;28;20072;-80
2023/02/07 00:56:46;;;;;;;12.13;6.17;;;;;;;-1.94;100.00;101270.03;31169709;28;20132;-78
2023/02/07 01:11:49;;;;;;;9.97;5.43;;;;;;;-1.91;100.00;101264.09;31219706;28;20557;-79
2023/02/07 01:26:51;;;;;;;8.30;4.93;;;;;;;-1.78;100.00;101267.75;31181555;28;20539;-77
2023/02/07 01:41:52;;;;;;;7.03;4.47;;;;;;;-1.84;100.00;101268.97;31195053;28;20057;-78
2023/02/07 01:56:57;;;;;;;7.37;4.57;;;;;;;-1.63;100.00;101256.69;31233039;28;20403;-77
2023/02/07 02:12:17;;;;;;;6.60;4.37;;;;;;;-1.63;100.00;101269.22;31228600;28;20112;-78
2023/02/07 02:27:41;;;;;;;7.73;4.03;;;;;;;-1.58;100.00;101266.41;31237531;28;20054;-78
2023/02/07 02:43:03;;;;;;;4.90;3.80;;;;;;;-1.86;100.00;101285.25;31203794;28;20079;-78
2023/02/07 02:58:42;;;;;;;10.07;4.47;;;;;;;-1.81;100.00;101289.66;31210788;28;20083;-78
2023/02/07 03:13:47;;;;;;;10.90;4.70;;;;;;;-2.08;100.00;101288.72;31169987;28;20107;-77
2023/02/07 03:28:51;;;;;;;7.77;5.03;;;;;;;-2.06;100.00;101309.72;31216958;28;20065;-78
2023/02/07 03:43:58;;;;;;;11.27;4.53;;;;;;;-2.26;100.00;101304.88;31193591;28;20085;-78
2023/02/07 03:59:00;;;;;;;7.63;5.13;;;;;;;-2.52;100.00;101310.00;31214288;28;20449;-79
2023/02/07 04:14:02;;;;;;;7.37;4.80;;;;;;;-2.82;100.00;101330.06;31187712;28;20057;-79
2023/02/07 04:29:04;;;;;;;10.10;5.37;;;;;;;-3.14;100.00;101345.06;31229956;28;20557;-78
2023/02/07 04:44:06;;;;;;;14.50;7.43;;;;;;;-3.85;100.00;101341.06;31177072;28;20057;-78
2023/02/07 04:59:08;;;;;;;14.47;5.30;;;;;;;-4.23;100.00;101360.75;31172950;28;20068;-78
2023/02/07 05:14:10;;;;;;;10.07;6.33;;;;;;;-4.32;100.00;101358.00;31185385;28;20045;-76
2023/02/07 05:29:12;;;;;;;11.53;6.67;;;;;;;-4.60;100.00;101361.56;31197309;28;20108;-74
2023/02/07 05:44:14;;;;;;;6.13;5.17;;;;;;;-4.62;100.00;101384.91;31224791;28;20160;-75
2023/02/07 05:59:16;;;;;;;7.40;5.07;;;;;;;-4.40;100.00;101389.66;31222671;28;20054;-76
2023/02/07 06:14:18;;;;;;;12.90;5.97;;;;;;;-3.60;100.00;101394.78;31244047;28;20058;-76
2023/02/07 06:29:20;;;;;;;9.80;5.33;;;;;;;-3.28;100.00;101418.63;31211198;28;20053;-78
2023/02/07 06:44:22;;;;;;;8.07;6.00;;;;;;;-4.01;100.00;101421.97;31208144;28;20076;-77
2023/02/07 06:59:25;;;;;;;15.57;7.27;;;;;;;-3.86;100.00;101435.00;31238631;28;20054;-77
2023/02/07 07:14:27;;;;;;;11.40;6.33;;;;;;;-1.89;100.00;101421.59;31215147;28;20045;-76
2023/02/07 07:29:28;;;;;;;13.80;6.20;;;;;;;0.27;100.00;101398.22;31176732;28;20057;-76
2023/02/07 07:44:30;;;;;;;12.13;6.57;;;;;;;1.65;85.76;101392.25;31188488;28;20145;-77
2023/02/07 07:59:33;;;;;;;14.77;7.17;;;;;;;2.24;77.88;101400.88;31154542;28;20565;-76
2023/02/07 08:14:34;;;;;;;16.17;6.50;;;;;;;1.90;76.09;101401.16;31241033;28;20487;-75
2023/02/07 08:29:37;;;;;;;11.33;5.93;;;;;;;3.06;72.72;101384.81;31230864;28;20057;-76
2023/02/07 08:44:41;;;;;;;10.53;6.00;;;;;;;2.84;67.39;101398.63;31218294;28;20046;-77
2023/02/07 08:59:43;;;;;;;11.63;5.97;;;;;;;2.91;62.13;101407.69;31218547;28;20053;-77
2023/02/07 09:14:45;;;;;;;8.60;4.93;;;;;;;3.49;60.63;101419.09;31179933;28;20045;-73
2023/02/07 09:29:47;;;;;;;8.87;5.37;;;;;;;3.31;63.00;101410.47;31218269;28;20049;-78
2023/02/07 09:45:06;;;;;;;12.03;5.27;;;;;;;2.60;63.80;101412.81;31213818;28;20414;-76
2023/02/07 10:00:25;;;;;;;11.83;6.83;;;;;;;3.12;62.90;101366.56;31205772;28;20065;-76
2023/02/07 10:15:37;;;;;;;14.00;5.70;;;;;;;3.03;65.42;101370.16;31238836;28;20045;-75
2023/02/07 10:30:49;;;;;;;12.13;5.93;;;;;;;3.59;65.65;101370.28;31253906;28;20057;-80
2023/02/07 10:45:59;;;;;;;11.20;6.67;;;;;;;3.37;64.27;101373.47;31220713;28;20076;-77
2023/02/07 11:01:18;;;;;;;12.97;6.77;;;;;;;3.38;67.21;101362.38;31206459;28;20046;-81
2023/02/07 11:16:23;;;;;;;13.40;6.07;;;;;;;4.01;66.92;101364.56;31229760;28;20049;-73
2023/02/07 11:31:29;;;;;;;10.87;5.40;;;;;;;3.59;67.96;101348.81;31212930;28;20141;-76
2023/02/07 11:46:41;;;;;;;;;;;;;;;2.61;77.23;101363.41;31227865;28;20049;-83
2023/02/07 12:01:58;;;;;;;12.80;5.83;;;;;;;1.36;89.39;101385.06;31219182;28;19996;-83
2023/02/07 12:17:04;;;;;;;11.73;5.20;;;;;;;1.06;100.00;101388.84;31231258;28;20057;-75
2023/02/07 12:32:16;;;;;;;12.67;6.30;;;;;;;1.62;100.00;101408.97;31200815;28;20057;-84
2023/02/07 12:47:27;;;;;;;10.73;5.37;;;;;;;0.89;100.00;101419.91;31206848;28;20061;-75
2023/02/07 13:02:51;;;;;;;9.70;5.37;;;;;;;-0.33;100.00;101432.94;31256415;28;20065;-75
2023/02/07 13:18:20;;;;;;;9.83;5.90;;;;;;;-0.74;100.00;101434.13;31247778;28;20049;-75
2023/02/07 13:33:26;;;;;;;7.67;4.50;;;;;;;-0.68;100.00;101465.66;31232833;28;20046;-74
2023/02/07 13:48:40;;;;;;;9.73;5.28;;;;;;;-0.61;100.00;101459.88;31230469;28;20137;-78
2023/02/07 14:04:12;;;;;;;9.47;5.57;;;;;;;-0.43;100.00;101450.81;31224663;28;20056;-76
2023/02/07 14:19:16;;;;;;;8.77;5.07;;;;;;;-0.65;100.00;101485.59;31242892;28;20104;-75
2023/02/07 14:34:19;;;;;;;2.67;2.47;;;;;;;-0.74;100.00;101519.44;31232166;28;20058;-75
2023/02/07 14:49:21;;;;;;;6.80;4.90;;;;;;;-0.72;100.00;101546.59;31229021;28;20056;-81
2023/02/07 15:04:25;;;;;;;10.33;6.03;;;;;;;-0.59;100.00;101575.03;31243374;28;20161;-80
2023/02/07 15:19:38;;;;;;;6.67;3.17;;;;;;;-1.12;100.00;101589.16;31218245;28;20076;-79
2023/02/07 15:35:18;;;;;;;8.17;4.47;;;;;;;-1.28;100.00;101617.25;31223075;28;20049;-80
2023/02/07 15:50:26;;;;;;;6.87;5.47;;;;;;;-1.38;100.00;101634.25;31232210;28;20103;-80
2023/02/07 16:05:37;;;;;;;13.43;6.77;;;;;;;-1.36;100.00;101657.94;31228564;28;20042;-79
2023/02/07 16:20:43;;;;;;;11.83;5.93;;;;;;;-1.57;100.00;101694.09;31206294;28;20058;-85
2023/02/07 16:35:49;;;;;;;8.10;4.47;;;;;;;-1.76;100.00;101681.69;31219384;28;20484;-83
2023/02/07 16:50:53;;;;;;;7.90;5.20;;;;;;;-2.04;100.00;101722.66;31233466;28;20149;-80
2023/02/07 17:05:58;;;;;;;10.23;5.30;;;;;;;-1.97;100.00;101733.72;31199265;28;20048;-82
2023/02/07 17:20:59;;;;;;;7.67;4.93;;;;;;;-2.00;100.00;101755.59;31212868;28;20469;-76
2023/02/07 17:36:02;;;;;;;9.43;6.97;;;;;;;-2.06;100.00;101772.72;31215247;28;20057;-76
2023/02/07 17:51:04;;;;;;;8.97;4.60;;;;;;;-2.37;100.00;101798.28;31224387;28;20065;-79
2023/02/07 18:06:11;;;;;;;5.33;4.33;;;;;;;-2.43;100.00;101806.31;31221090;28;20049;-79
2023/02/07 18:21:13;;;;;;;11.17;5.23;;;;;;;-2.49;100.00;101823.44;31209345;28;20845;-77
2023/02/07 18:36:16;;;;;;;8.43;4.77;;;;;;;-2.43;100.00;101846.22;31199182;28;20107;-79
2023/02/07 18:51:19;;;;;;;16.40;7.63;;;;;;;-2.34;100.00;101864.16;31291297;28;20508;-87
2023/02/07 19:06:24;;;;;;;12.17;4.70;;;;;;;-2.23;100.00;101900.19;31221876;28;20103;-76
2023/02/07 19:21:26;;;;;;;13.10;6.37;;;;;;;-2.36;100.00;101916.88;31203939;28;20057;-78
2023/02/07 19:36:30;;;;;;;8.40;5.20;;;;;;;-2.50;100.00;101928.22;31209849;28;20045;-79
2023/02/07 19:51:32;;;;;;;8.47;5.40;;;;;;;-2.78;100.00;101942.38;31215113;28;20053;-79
2023/02/07 20:06:34;;;;;;;10.40;5.13;;;;;;;-2.94;100.00;101954.28;31245221;28;20061;-80
2023/02/07 20:21:36;;;;;;;7.73;4.40;;;;;;;-3.10;100.00;101967.72;31239368;28;20066;-80
2023/02/07 20:36:42;;;;;;;12.00;5.93;;;;;;;-2.98;100.00;101996.56;31193712;28;20099;-80
2023/02/07 20:51:47;;;;;;;;;;;;;;;-3.18;100.00;102013.47;31213750;28;20065;-78
2023/02/07 21:06:49;;;;;;;11.17;6.17;;;;;;;-3.13;100.00;102021.41;31202004;28;19925;-82
2023/02/07 21:21:53;;;;;;;11.13;6.60;;;;;;;-3.20;100.00;102028.91;31219044;28;20121;-79
2023/02/07 21:36:56;;;;;;;11.80;4.57;;;;;;;-3.31;100.00;102040.69;31229721;28;20049;-78
2023/02/07 21:51:59;;;;;;;10.57;5.17;;;;;;;-3.49;100.00;102065.25;31231504;28;20045;-78
2023/02/07 22:07:02;;;;;;;13.60;6.60;;;;;;;-3.78;100.00;102073.91;31236070;28;20100;-77
2023/02/07 22:22:04;;;;;;;8.03;6.17;;;;;;;-4.04;100.00;102085.72;31224948;28;20062;-80
2023/02/07 22:37:09;;;;;;;22.03;8.80;;;;;;;-4.02;100.00;102098.72;31233565;28;20094;-78
2023/02/07 22:52:10;;;;;;;24.23;10.97;;;;;;;-4.21;100.00;102096.66;31224759;28;20561;-81
2023/02/07 23:07:13;;;;;;;8.27;4.83;;;;;;;-4.47;100.00;102125.06;31269023;28;20045;-79
2023/02/07 23:22:15;;;;;;;12.23;6.37;;;;;;;-4.60;100.00;102136.25;31199614;28;20058;-79
2023/02/07 23:37:19;;;;;;;10.27;6.13;;;;;;;-4.38;100.00;102153.72;31230465;28;20052;-78
2023/02/07 23:52:20;;;;;;;7.60;5.93;;;;;;;-4.72;100.00;102172.81;31233477;28;20061;-78
